createdAt,value
2018-02-02T00:00:31.906Z,37.60
2018-02-02T00:02:59.566Z,37.17
2018-02-02T00:05:27.102Z,50.47
2018-02-02T00:07:54.635Z,60.50
2018-02-02T00:10:22.295Z,50.97
2018-02-02T00:12:49.830Z,60.00
2018-02-02T00:15:17.370Z,57.90
2018-02-02T00:17:44.902Z,44.33
2018-02-02T00:20:12.445Z,51.93
2018-02-02T00:22:39.984Z,53.47
2018-02-02T00:25:07.530Z,50.70
2018-02-02T00:27:35.071Z,64.97
2018-02-02T00:30:02.630Z,60.57
2018-02-02T00:32:30.167Z,60.43
2018-02-02T00:34:57.709Z,52.10
2018-02-02T00:37:25.242Z,46.50
2018-02-02T00:39:53.022Z,44.50
2018-02-02T00:42:20.558Z,64.67
2018-02-02T00:44:48.258Z,59.27
2018-02-02T00:47:15.790Z,60.90
2018-02-02T00:49:43.336Z,67.63
2018-02-02T00:52:10.909Z,58.37
2018-02-02T00:54:38.631Z,51.53
2018-02-02T00:57:06.348Z,47.77
2018-02-02T00:59:33.905Z,40.90
2018-02-02T01:02:01.476Z,57.60
2018-02-02T01:04:29.102Z,63.73
2018-02-02T01:06:56.722Z,66.13
2018-02-02T01:09:24.258Z,72.50
2018-02-02T01:11:51.788Z,71.53
2018-02-02T01:14:19.471Z,74.40
2018-02-02T01:16:47.009Z,100.00
2018-02-02T01:19:14.549Z,89.77
2018-02-02T01:21:42.086Z,349.23
2018-02-02T01:24:09.855Z,325.73
2018-02-02T01:26:37.393Z,231.80
2018-02-02T01:29:04.933Z,214.90
2018-02-02T01:31:32.474Z,179.00
2018-02-02T01:34:00.006Z,167.23
2018-02-02T01:36:27.551Z,151.37
2018-02-02T01:38:55.081Z,165.33
2018-02-02T01:41:22.870Z,171.30
2018-02-02T01:43:50.489Z,137.43
2018-02-02T01:46:18.307Z,72.57
2018-02-02T01:48:45.921Z,48.23
2018-02-02T01:51:13.614Z,53.37
2018-02-02T01:53:41.258Z,49.77
2018-02-02T01:56:09.046Z,39.17
2018-02-02T01:58:36.699Z,40.23
2018-02-02T02:01:04.316Z,40.17
2018-02-02T02:03:31.924Z,37.37
2018-02-02T02:05:59.453Z,35.33
2018-02-02T02:08:27.022Z,34.87
2018-02-02T02:10:54.558Z,33.40
2018-02-02T02:13:22.150Z,33.03
2018-02-02T02:15:49.722Z,52.57
2018-02-02T02:18:17.436Z,55.53
2018-02-02T02:20:44.977Z,60.13
2018-02-02T02:23:12.516Z,55.20
2018-02-02T02:25:40.295Z,54.27
2018-02-02T02:28:07.834Z,48.73
2018-02-02T02:30:35.426Z,57.33
2018-02-02T02:33:03.014Z,55.10
2018-02-02T02:35:30.551Z,57.50
2018-02-02T02:37:58.094Z,55.53
2018-02-02T02:40:25.790Z,57.30
2018-02-02T02:42:53.337Z,44.73
2018-02-02T02:45:21.132Z,42.23
2018-02-02T02:47:48.851Z,51.40
2018-02-02T02:50:16.386Z,59.57
2018-02-02T02:52:43.986Z,57.87
2018-02-02T02:55:11.661Z,60.53
2018-02-02T02:57:39.198Z,45.80
2018-02-02T03:00:06.784Z,47.83
2018-02-02T03:02:34.327Z,45.53
2018-02-02T03:05:01.920Z,48.80
2018-02-02T03:07:29.444Z,49.20
2018-02-02T03:09:57.005Z,38.83
2018-02-02T03:12:24.551Z,39.43
2018-02-02T03:14:52.130Z,36.57
2018-02-02T03:17:19.664Z,32.60
2018-02-02T03:19:47.202Z,49.80
2018-02-02T03:22:14.782Z,41.63
2018-02-02T03:24:42.411Z,35.33
2018-02-02T03:27:09.933Z,50.87
2018-02-02T03:29:37.486Z,53.67
2018-02-02T03:32:05.031Z,57.97
2018-02-02T03:34:32.646Z,48.63
2018-02-02T03:37:00.179Z,42.53
2018-02-02T03:39:27.794Z,51.17
2018-02-02T03:41:55.364Z,60.13
2018-02-02T03:44:22.914Z,46.33
2018-02-02T03:46:50.458Z,35.17
2018-02-02T03:49:18.170Z,29.70
2018-02-02T03:51:45.918Z,27.10
2018-02-02T03:54:13.454Z,36.97
2018-02-02T03:56:41.001Z,24.97
2018-02-02T03:59:08.554Z,23.03
2018-02-02T04:01:36.173Z,24.87
2018-02-02T04:04:03.722Z,23.00
2018-02-02T04:06:31.254Z,41.63
2018-02-02T04:08:58.830Z,53.63
2018-02-02T04:11:26.361Z,71.97
2018-02-02T04:13:54.081Z,62.00
2018-02-02T04:16:21.680Z,31.47
2018-02-02T04:18:49.365Z,33.37
2018-02-02T04:21:17.027Z,26.47
2018-02-02T04:23:44.566Z,44.43
2018-02-02T04:26:12.098Z,31.07
2018-02-02T04:28:39.638Z,27.53
2018-02-02T04:31:07.496Z,24.30
2018-02-02T04:33:35.214Z,26.27
2018-02-02T04:36:04.684Z,38.83
2018-02-02T04:38:32.239Z,37.70
2018-02-02T04:40:59.765Z,29.30
2018-02-02T04:43:27.309Z,26.67
2018-02-02T04:45:54.854Z,24.67
2018-02-02T04:48:22.454Z,47.00
2018-02-02T04:50:50.145Z,46.47
2018-02-02T04:53:17.863Z,44.00
2018-02-02T04:55:45.582Z,61.53
2018-02-02T04:58:13.154Z,53.57
2018-02-02T05:00:40.714Z,41.17
2018-02-02T05:03:08.337Z,31.23
2018-02-02T05:05:35.925Z,31.90
2018-02-02T05:08:03.526Z,38.87
2018-02-02T05:10:31.288Z,33.27
2018-02-02T05:12:58.833Z,33.83
2018-02-02T05:15:26.393Z,34.80
2018-02-02T05:17:53.972Z,36.70
2018-02-02T05:20:21.724Z,31.03
2018-02-02T05:22:49.314Z,32.23
2018-02-02T05:25:17.002Z,34.07
2018-02-02T05:27:44.618Z,34.40
2018-02-02T05:30:12.289Z,30.67
2018-02-02T05:32:40.005Z,30.80
2018-02-02T05:35:07.594Z,27.10
2018-02-02T05:37:35.134Z,41.67
2018-02-02T05:40:02.721Z,43.57
2018-02-02T05:42:30.311Z,39.83
2018-02-02T05:44:57.951Z,133.70
2018-02-02T05:47:25.493Z,93.47
2018-02-02T05:49:53.042Z,68.30
2018-02-02T05:52:20.760Z,154.60
2018-02-02T05:54:48.370Z,142.87
2018-02-02T05:57:16.028Z,98.30
2018-02-02T05:59:43.558Z,75.37
2018-02-02T06:02:11.363Z,79.93
2018-02-02T06:04:38.930Z,80.70
2018-02-02T06:07:06.490Z,75.07
2018-02-02T06:09:34.026Z,78.90
2018-02-02T06:12:01.834Z,95.27
2018-02-02T06:14:29.365Z,91.73
2018-02-02T06:16:56.970Z,65.03
2018-02-02T06:19:36.531Z,58.07
2018-02-02T06:22:04.349Z,57.23
2018-02-02T06:24:32.066Z,52.80
2018-02-02T06:26:59.622Z,69.00
2018-02-02T06:29:27.403Z,108.37
2018-02-02T06:31:54.978Z,198.67
2018-02-02T06:34:22.509Z,108.80
2018-02-02T06:36:50.086Z,97.73
2018-02-02T06:39:17.714Z,200.63
2018-02-02T06:41:45.282Z,266.57
2018-02-02T06:44:12.901Z,609.50
2018-02-02T06:46:40.506Z,490.50
2018-02-02T06:49:08.046Z,209.67
2018-02-02T06:51:35.767Z,162.00
2018-02-02T06:54:03.487Z,158.13
2018-02-02T06:56:31.026Z,404.13
2018-02-02T06:58:58.579Z,304.80
2018-02-02T07:01:26.229Z,112.03
2018-02-02T07:03:53.959Z,110.00
2018-02-02T07:06:21.522Z,182.43
2018-02-02T07:08:49.099Z,148.97
2018-02-02T07:11:17.669Z,108.00
2018-02-02T07:13:45.428Z,238.77
2018-02-02T07:16:13.601Z,665.43
2018-02-02T07:18:41.158Z,172.60
2018-02-02T07:21:08.806Z,91.37
2018-02-02T07:23:36.404Z,117.67
2018-02-02T07:26:03.949Z,107.90
2018-02-02T07:28:31.493Z,44.47
2018-02-02T07:30:59.030Z,51.33
2018-02-02T07:33:26.732Z,60.33
2018-02-02T07:35:54.477Z,74.80
2018-02-02T07:38:22.022Z,74.03
2018-02-02T07:40:49.622Z,82.50
2018-02-02T07:43:17.344Z,67.67
2018-02-02T07:45:45.075Z,75.53
2018-02-02T07:48:12.830Z,72.43
2018-02-02T07:50:40.378Z,65.43
2018-02-02T07:53:07.911Z,50.60
2018-02-02T07:55:35.506Z,55.20
2018-02-02T07:58:03.306Z,52.40
2018-02-02T08:00:31.471Z,155.87
2018-02-02T08:02:59.137Z,55.00
2018-02-02T08:05:26.671Z,34.77
2018-02-02T08:07:54.214Z,58.07
2018-02-02T08:10:21.775Z,24.93
2018-02-02T08:12:49.357Z,19.67
2018-02-02T08:15:17.091Z,28.77
2018-02-02T08:17:44.714Z,17.37
2018-02-02T08:20:12.263Z,21.90
2018-02-02T08:22:39.802Z,19.77
2018-02-02T08:25:07.354Z,18.53
2018-02-02T08:27:35.015Z,18.07
2018-02-02T08:30:02.628Z,28.67
2018-02-02T08:32:30.174Z,23.90
2018-02-02T08:34:57.767Z,34.20
2018-02-02T08:37:25.318Z,29.60
2018-02-02T08:39:53.007Z,20.70
2018-02-02T08:42:20.727Z,19.40
2018-02-02T08:44:48.270Z,18.20
2018-02-02T08:47:15.858Z,24.77
2018-02-02T08:49:43.450Z,36.27
2018-02-02T08:52:11.085Z,20.20
2018-02-02T08:54:38.808Z,21.70
2018-02-02T08:57:06.434Z,24.93
2018-02-02T08:59:33.990Z,21.37
2018-02-02T09:02:06.694Z,31.20
2018-02-02T09:04:34.290Z,22.50
2018-02-02T09:07:01.836Z,38.30
2018-02-02T09:09:29.390Z,24.90
2018-02-02T09:11:56.939Z,22.73
2018-02-02T09:14:24.551Z,25.10
2018-02-02T09:16:52.110Z,32.00
2018-02-02T09:19:19.642Z,26.30
2018-02-02T09:21:53.949Z,25.17
2018-02-02T09:24:21.523Z,19.03
2018-02-02T09:26:49.187Z,22.90
2018-02-02T09:29:16.733Z,19.03
2018-02-02T09:31:44.270Z,20.33
2018-02-02T09:34:11.866Z,23.80
2018-02-02T09:36:39.554Z,26.03
2018-02-02T09:39:07.126Z,29.97
2018-02-02T09:41:34.675Z,31.13
2018-02-02T09:44:02.360Z,29.33
2018-02-02T09:46:30.030Z,27.63
2018-02-02T09:48:57.770Z,37.97
2018-02-02T09:51:25.735Z,28.07
2018-02-02T09:53:53.286Z,29.57
2018-02-02T09:56:21.100Z,34.00
2018-02-02T09:58:48.819Z,33.37
2018-02-02T10:01:16.891Z,27.50
2018-02-02T10:03:45.026Z,26.47
2018-02-02T10:06:12.669Z,25.57
2018-02-02T10:08:40.261Z,21.83
2018-02-02T10:11:07.838Z,19.97
2018-02-02T10:13:35.415Z,20.30
2018-02-02T10:16:02.958Z,23.23
2018-02-02T10:18:30.502Z,22.47
2018-02-02T10:20:58.059Z,19.03
2018-02-02T10:23:25.799Z,22.53
2018-02-02T10:25:53.517Z,14.17
2018-02-02T10:28:21.062Z,12.40
2018-02-02T10:30:48.654Z,13.63
2018-02-02T10:33:16.200Z,17.97
2018-02-02T10:35:43.747Z,11.87
2018-02-02T10:38:11.302Z,15.90
2018-02-02T10:40:38.886Z,13.80
2018-02-02T10:43:06.642Z,13.93
2018-02-02T10:45:34.173Z,14.13
2018-02-02T10:48:01.782Z,11.97
2018-02-02T10:50:29.314Z,14.37
2018-02-02T10:52:56.986Z,16.77
2018-02-02T10:55:24.731Z,15.17
2018-02-02T10:57:52.304Z,11.67
2018-02-02T11:00:19.880Z,17.93
2018-02-02T11:02:52.970Z,14.87
2018-02-02T11:05:20.601Z,17.93
2018-02-02T11:07:48.171Z,19.80
2018-02-02T11:10:15.757Z,16.23
2018-02-02T11:12:43.474Z,15.67
2018-02-02T11:15:11.095Z,13.57
2018-02-02T11:17:39.082Z,17.70
2018-02-02T11:20:06.611Z,13.87
2018-02-02T11:22:34.269Z,13.27
2018-02-02T11:25:01.971Z,19.50
2018-02-02T11:27:31.048Z,16.70
2018-02-02T11:30:03.925Z,14.97
2018-02-02T11:32:31.501Z,11.87
2018-02-02T11:34:59.078Z,12.10
2018-02-02T11:37:27.535Z,14.00
2018-02-02T11:39:55.142Z,15.00
2018-02-02T11:42:22.818Z,12.40
2018-02-02T11:44:50.426Z,12.67
2018-02-02T11:47:18.010Z,11.67
2018-02-02T11:49:45.675Z,15.40
2018-02-02T11:52:13.213Z,14.17
2018-02-02T11:54:40.770Z,16.17
2018-02-02T11:57:08.356Z,12.90
2018-02-02T11:59:35.890Z,11.30
2018-02-02T12:02:03.432Z,15.07
2018-02-02T12:04:31.065Z,11.70
2018-02-02T12:06:58.799Z,16.07
2018-02-02T12:09:26.325Z,14.17
2018-02-02T12:11:53.925Z,20.47
2018-02-02T12:14:21.459Z,12.47
2018-02-02T12:16:49.058Z,20.20
2018-02-02T12:19:16.630Z,11.50
2018-02-02T12:21:46.181Z,15.63
2018-02-02T12:24:23.651Z,15.53
2018-02-02T12:26:56.398Z,32.40
2018-02-02T12:32:47.599Z,18.03
2018-02-02T12:35:15.872Z,15.77
2018-02-02T12:37:43.459Z,13.70
2018-02-02T12:40:11.043Z,13.10
2018-02-02T12:42:38.805Z,18.60
2018-02-02T12:45:06.398Z,13.50
2018-02-02T12:47:35.946Z,16.60
2018-02-02T12:50:07.410Z,21.63
2018-02-02T12:52:35.195Z,20.60
2018-02-02T12:55:02.738Z,18.57
2018-02-02T12:57:30.293Z,16.03
2018-02-02T12:59:57.832Z,18.73
2018-02-02T13:02:25.406Z,25.50
2018-02-02T13:04:52.941Z,15.90
2018-02-02T13:07:20.802Z,15.80
2018-02-02T13:09:48.345Z,13.43
2018-02-02T13:12:15.881Z,11.60
2018-02-02T13:14:43.426Z,17.70
2018-02-02T13:17:10.962Z,20.83
2018-02-02T13:19:38.516Z,17.10
2018-02-02T13:22:06.058Z,15.23
2018-02-02T13:24:33.827Z,14.77
2018-02-02T13:27:01.370Z,20.40
2018-02-02T13:29:29.140Z,17.03
2018-02-02T13:31:56.980Z,23.23
2018-02-02T13:34:24.518Z,24.03
2018-02-02T13:36:52.110Z,21.47
2018-02-02T13:39:19.739Z,69.90
2018-02-02T13:41:47.285Z,339.73
2018-02-02T13:44:14.833Z,45.53
2018-02-02T13:46:42.378Z,70.13
2018-02-02T13:49:10.008Z,22.63
2018-02-02T13:51:37.577Z,40.47
2018-02-02T13:54:05.122Z,37.80
2018-02-02T13:56:32.658Z,33.87
2018-02-02T13:59:00.210Z,67.53
2018-02-02T14:01:27.752Z,34.43
2018-02-02T14:03:55.288Z,28.27
2018-02-02T14:06:22.834Z,50.53
2018-02-02T14:08:50.370Z,22.17
2018-02-02T14:11:17.922Z,22.53
2018-02-02T14:13:45.474Z,299.80
2018-02-02T14:16:13.205Z,20.47
2018-02-02T14:18:40.758Z,19.23
2018-02-02T14:21:08.539Z,21.23
2018-02-02T14:23:36.112Z,20.17
2018-02-02T14:26:03.690Z,16.53
2018-02-02T14:28:31.248Z,52.43
2018-02-02T14:30:58.796Z,13.23
2018-02-02T14:33:26.524Z,20.97
2018-02-02T14:35:54.342Z,160.97
2018-02-02T14:38:21.946Z,87.03
2018-02-02T14:40:49.490Z,54.67
2018-02-02T14:43:17.034Z,56.03
2018-02-02T14:45:44.597Z,55.27
2018-02-02T14:48:12.137Z,56.00
2018-02-02T14:50:39.690Z,43.90
2018-02-02T14:53:07.466Z,36.17
2018-02-02T14:55:35.007Z,21.17
2018-02-02T14:58:02.764Z,57.67
2018-02-02T15:00:30.330Z,16.10
2018-02-02T15:02:57.882Z,17.03
2018-02-02T15:05:25.420Z,21.37
2018-02-02T15:07:52.982Z,97.37
2018-02-02T15:10:20.530Z,21.03
2018-02-02T15:12:48.172Z,16.30
2018-02-02T15:15:15.722Z,24.80
2018-02-02T15:17:43.255Z,22.63
2018-02-02T15:20:10.848Z,17.83
2018-02-02T15:25:40.146Z,17.27
2018-02-02T15:28:07.935Z,24.63
2018-02-02T15:30:35.486Z,33.30
2018-02-02T15:33:03.034Z,32.43
2018-02-02T15:35:30.690Z,33.07
2018-02-02T15:37:58.239Z,25.37
2018-02-02T15:40:26.025Z,23.23
2018-02-02T15:42:53.634Z,20.90
2018-02-02T15:45:21.267Z,23.43
2018-02-02T15:47:48.866Z,53.97
2018-02-02T15:50:16.430Z,69.93
2018-02-02T15:52:43.966Z,19.13
2018-02-02T15:55:11.521Z,40.80
2018-02-02T15:57:39.249Z,20.80
2018-02-02T16:00:07.014Z,46.00
2018-02-02T16:02:34.559Z,86.53
2018-02-02T16:05:02.098Z,61.50
2018-02-02T16:07:29.823Z,25.03
2018-02-02T16:09:57.441Z,16.67
2018-02-02T16:12:25.159Z,47.07
2018-02-02T16:14:52.699Z,28.50
2018-02-02T16:17:20.290Z,74.43
2018-02-02T16:19:47.826Z,32.47
2018-02-02T16:22:15.534Z,69.50
2018-02-02T16:24:43.097Z,25.23
2018-02-02T16:27:10.643Z,26.10
2018-02-02T16:29:38.210Z,39.03
2018-02-02T16:32:05.754Z,32.10
2018-02-02T16:34:33.624Z,19.83
2018-02-02T16:37:01.412Z,42.23
2018-02-02T16:39:29.046Z,123.83
2018-02-02T16:41:56.645Z,39.17
2018-02-02T16:44:24.226Z,24.53
2018-02-02T16:46:51.827Z,31.57
2018-02-02T16:49:19.410Z,21.93
2018-02-02T16:51:47.043Z,26.00
2018-02-02T16:54:14.643Z,52.53
2018-02-02T16:56:42.226Z,32.10
2018-02-02T16:59:09.863Z,21.33
2018-02-02T17:01:37.523Z,24.60
2018-02-02T17:04:05.170Z,32.40
2018-02-02T17:06:32.801Z,29.17
2018-02-02T17:09:00.383Z,25.43
2018-02-02T17:11:27.990Z,21.80
2018-02-02T17:13:55.598Z,20.97
2018-02-02T17:16:23.195Z,26.47
2018-02-02T17:18:50.873Z,20.07
2018-02-02T17:21:18.444Z,23.87
2018-02-02T17:23:46.179Z,21.80
2018-02-02T17:26:13.896Z,23.97
2018-02-02T17:28:41.473Z,19.27
2018-02-02T17:31:09.014Z,28.10
2018-02-02T17:33:36.655Z,25.60
2018-02-02T17:36:04.369Z,17.87
2018-02-02T17:38:31.934Z,19.90
2018-02-02T17:40:59.667Z,19.50
2018-02-02T17:43:27.390Z,18.23
2018-02-02T17:45:54.929Z,14.60
2018-02-02T17:48:22.533Z,17.90
2018-02-02T17:50:50.122Z,20.70
2018-02-02T17:53:17.698Z,26.00
2018-02-02T17:55:45.242Z,21.23
2018-02-02T17:58:12.927Z,37.17
2018-02-02T18:00:45.883Z,22.33
2018-02-02T18:03:15.926Z,41.63
2018-02-02T18:05:43.614Z,52.67
2018-02-02T18:08:11.205Z,44.27
2018-02-02T18:10:39.052Z,34.83
2018-02-02T18:13:06.654Z,32.47
2018-02-02T18:15:34.237Z,21.13
2018-02-02T18:18:01.783Z,23.57
2018-02-02T18:20:29.342Z,23.13
2018-02-02T18:22:57.013Z,23.10
2018-02-02T18:25:24.561Z,26.53
2018-02-02T18:27:52.102Z,19.97
2018-02-02T18:30:19.794Z,21.67
2018-02-02T18:32:47.344Z,23.07
2018-02-02T18:35:15.022Z,26.00
2018-02-02T18:37:42.585Z,25.80
2018-02-02T18:40:10.339Z,26.10
2018-02-02T18:42:37.886Z,36.37
2018-02-02T18:45:05.446Z,34.00
2018-02-02T18:47:33.042Z,16.43
2018-02-02T18:50:00.731Z,20.43
2018-02-02T18:52:28.278Z,29.90
2018-02-02T18:54:55.825Z,32.00
2018-02-02T18:57:23.582Z,53.23
2018-02-02T18:59:51.403Z,32.13
2018-02-02T19:02:19.126Z,29.87
2018-02-02T19:04:46.734Z,30.50
2018-02-02T19:07:14.275Z,24.33
2018-02-02T19:09:41.864Z,23.37
2018-02-02T19:12:09.422Z,22.57
2018-02-02T19:14:37.000Z,27.50
2018-02-02T19:17:04.726Z,26.10
2018-02-02T19:19:32.271Z,16.77
2018-02-02T19:22:00.062Z,28.67
2018-02-02T19:24:27.607Z,22.80
2018-02-02T19:26:55.226Z,24.27
2018-02-02T19:29:22.944Z,21.73
2018-02-02T19:31:50.634Z,20.00
2018-02-02T19:34:18.229Z,19.50
2018-02-02T19:36:45.811Z,25.00
2018-02-02T19:39:13.454Z,22.60
2018-02-02T19:41:41.005Z,19.70
2018-02-02T19:44:08.627Z,26.20
2018-02-02T19:46:36.441Z,23.57
2018-02-02T19:49:04.014Z,17.77
2018-02-02T19:51:31.562Z,20.53
2018-02-02T19:53:59.176Z,24.27
2018-02-02T19:56:26.770Z,22.47
2018-02-02T19:58:54.369Z,27.37
2018-02-02T20:01:21.911Z,27.83
2018-02-02T20:03:49.665Z,23.43
2018-02-02T20:06:17.283Z,53.17
2018-02-02T20:08:44.974Z,57.57
2018-02-02T20:11:12.548Z,25.13
2018-02-02T20:13:40.238Z,27.73
2018-02-02T20:16:07.830Z,27.80
2018-02-02T20:18:35.454Z,28.50
2018-02-02T20:21:03.165Z,78.03
2018-02-02T20:23:30.909Z,75.07
2018-02-02T20:25:58.502Z,111.60
2018-02-02T20:28:26.038Z,25.53
2018-02-02T20:30:53.637Z,41.10
2018-02-02T20:33:21.178Z,28.07
2018-02-02T20:35:48.731Z,23.47
2018-02-02T20:38:16.415Z,25.30
2018-02-02T20:40:43.974Z,36.83
2018-02-02T20:43:11.518Z,28.90
2018-02-02T20:45:39.064Z,206.33
2018-02-02T20:48:06.790Z,85.70
2018-02-02T20:50:34.497Z,48.73
2018-02-02T20:53:02.098Z,47.77
2018-02-02T20:55:29.941Z,41.13
2018-02-02T20:57:57.687Z,25.50
2018-02-02T21:00:25.479Z,38.87
2018-02-02T21:02:53.078Z,31.27
2018-02-02T21:05:20.815Z,93.90
2018-02-02T21:07:48.358Z,92.00
2018-02-02T21:10:15.958Z,170.33
2018-02-02T21:12:43.570Z,120.17
2018-02-02T21:15:11.176Z,159.07
2018-02-02T21:17:38.733Z,117.23
2018-02-02T21:20:06.342Z,82.10
2018-02-02T21:22:33.885Z,81.10
2018-02-02T21:25:01.426Z,66.33
2018-02-02T21:27:28.986Z,38.53
2018-02-02T21:29:56.534Z,37.43
2018-02-02T21:32:24.141Z,37.97
2018-02-02T21:34:51.686Z,41.23
2018-02-02T21:37:19.405Z,58.67
2018-02-02T21:39:46.970Z,53.73
2018-02-02T21:42:14.510Z,44.40
2018-02-02T21:44:42.202Z,51.63
2018-02-02T21:47:09.754Z,109.93
2018-02-02T21:49:37.294Z,88.17
2018-02-02T21:52:04.846Z,87.90
2018-02-02T21:54:32.394Z,110.80
2018-02-02T21:56:59.987Z,123.03
2018-02-02T21:59:27.806Z,92.17
2018-02-02T22:01:55.437Z,76.97
2018-02-02T22:04:23.009Z,74.80
2018-02-02T22:06:50.561Z,60.50
2018-02-02T22:09:18.111Z,55.53
2018-02-02T22:11:45.798Z,55.30
2018-02-02T22:14:13.355Z,60.27
2018-02-02T22:16:41.034Z,51.63
2018-02-02T22:19:08.618Z,40.67
2018-02-02T22:21:36.261Z,42.57
2018-02-02T22:24:03.818Z,35.67
2018-02-02T22:26:31.394Z,33.73
2018-02-02T22:28:58.970Z,35.33
2018-02-02T22:31:26.501Z,29.73
2018-02-02T22:33:54.051Z,25.50
2018-02-02T22:36:21.664Z,22.27
2018-02-02T22:38:49.222Z,21.70
2018-02-02T22:41:16.767Z,19.90
2018-02-02T22:43:44.402Z,19.50
2018-02-02T22:46:11.941Z,22.43
2018-02-02T22:48:39.489Z,12.80
2018-02-02T22:51:07.028Z,16.20
2018-02-02T22:53:34.647Z,15.03
2018-02-02T22:56:02.190Z,12.97
2018-02-02T22:58:29.746Z,15.27
2018-02-02T23:00:57.290Z,13.10
2018-02-02T23:03:24.835Z,10.20
2018-02-02T23:05:52.406Z,15.37
2018-02-02T23:08:19.950Z,15.57
2018-02-02T23:10:47.522Z,32.90
2018-02-02T23:13:15.076Z,41.53
2018-02-02T23:15:42.629Z,41.17
2018-02-02T23:18:10.185Z,63.83
2018-02-02T23:20:37.783Z,29.80
2018-02-02T23:23:05.338Z,30.20
2018-02-02T23:25:32.874Z,52.73
2018-02-02T23:28:00.462Z,64.73
2018-02-02T23:30:28.008Z,22.97
2018-02-02T23:32:55.581Z,30.23
2018-02-02T23:35:23.189Z,40.13
2018-02-02T23:37:50.730Z,21.03
2018-02-02T23:40:18.290Z,19.63
2018-02-02T23:42:45.822Z,14.67
2018-02-02T23:45:13.385Z,16.50
2018-02-02T23:47:40.943Z,13.23
2018-02-02T23:50:08.514Z,13.23
2018-02-02T23:52:36.062Z,15.23
2018-02-02T23:55:03.618Z,17.90
2018-02-02T23:57:31.241Z,10.30
2018-02-02T23:59:58.868Z,10.77
